createdAt,value
2019-01-29T00:01:25.363Z,40.20
2019-01-29T00:03:51.621Z,40.20
2019-01-29T00:06:17.815Z,40.30
2019-01-29T00:08:44.045Z,40.20
2019-01-29T00:11:10.272Z,40.20
2019-01-29T00:13:36.499Z,40.30
2019-01-29T00:16:02.781Z,40.40
2019-01-29T00:18:29.621Z,40.40
2019-01-29T00:20:56.003Z,40.40
2019-01-29T00:23:22.227Z,40.40
2019-01-29T00:25:48.452Z,40.50
2019-01-29T00:28:14.684Z,40.40
2019-01-29T00:30:40.936Z,40.40
2019-01-29T00:33:08.796Z,40.30
2019-01-29T00:35:35.057Z,40.20
2019-01-29T00:38:01.227Z,40.20
2019-01-29T00:40:27.519Z,40.30
2019-01-29T00:42:53.683Z,40.40
2019-01-29T00:45:19.928Z,40.30
2019-01-29T00:47:46.148Z,40.20
2019-01-29T00:50:12.372Z,40.30
2019-01-29T00:52:42.039Z,40.20
2019-01-29T00:55:05.058Z,40.20
2019-01-29T00:57:32.890Z,40.10
2019-01-29T00:59:59.074Z,40.10
2019-01-29T01:02:25.359Z,40.10
2019-01-29T01:04:51.578Z,40.10
2019-01-29T01:07:17.867Z,40.10
2019-01-29T01:09:44.250Z,40.10
2019-01-29T01:12:10.503Z,40.10
2019-01-29T01:14:36.706Z,40.00
2019-01-29T01:17:03.158Z,39.90
2019-01-29T01:19:29.396Z,39.90
2019-01-29T01:21:55.578Z,39.80
2019-01-29T01:24:21.868Z,39.80
2019-01-29T01:26:48.271Z,39.80
2019-01-29T01:29:14.496Z,39.80
2019-01-29T01:31:40.716Z,39.80
2019-01-29T01:34:06.927Z,39.80
2019-01-29T01:36:33.163Z,39.80
2019-01-29T01:38:59.402Z,39.90
2019-01-29T01:41:25.607Z,40.00
2019-01-29T01:43:51.859Z,40.00
2019-01-29T01:46:19.561Z,39.90
2019-01-29T01:48:45.951Z,39.80
2019-01-29T01:51:12.187Z,39.80
2019-01-29T01:53:38.389Z,39.70
2019-01-29T01:56:04.626Z,39.60
2019-01-29T01:58:30.838Z,39.50
2019-01-29T02:00:57.089Z,39.50
2019-01-29T02:03:23.345Z,39.60
2019-01-29T02:05:49.545Z,39.60
2019-01-29T02:08:15.765Z,39.60
2019-01-29T02:10:42.000Z,39.70
2019-01-29T02:13:08.216Z,39.70
2019-01-29T02:15:34.504Z,39.70
2019-01-29T02:18:00.683Z,39.60
2019-01-29T02:20:26.902Z,39.60
2019-01-29T02:22:54.008Z,39.70
2019-01-29T02:25:20.415Z,39.60
2019-01-29T02:27:46.612Z,39.70
2019-01-29T02:30:12.857Z,39.90
2019-01-29T02:32:39.091Z,39.90
2019-01-29T02:35:05.310Z,40.00
2019-01-29T02:37:31.539Z,40.00
2019-01-29T02:39:57.715Z,39.90
2019-01-29T02:42:23.998Z,39.90
2019-01-29T02:44:50.215Z,39.90
2019-01-29T02:47:16.432Z,39.80
2019-01-29T02:49:42.719Z,39.80
2019-01-29T02:52:09.109Z,39.70
2019-01-29T02:54:35.383Z,39.70
2019-01-29T02:57:01.543Z,39.80
2019-01-29T02:59:27.788Z,39.80
2019-01-29T03:01:54.080Z,39.80
2019-01-29T03:04:20.441Z,39.80
2019-01-29T03:06:46.664Z,39.80
2019-01-29T03:09:12.902Z,39.80
2019-01-29T03:11:39.132Z,39.60
2019-01-29T03:14:05.379Z,39.80
2019-01-29T03:16:31.585Z,39.80
2019-01-29T03:18:57.808Z,39.80
2019-01-29T03:21:24.055Z,39.80
2019-01-29T03:23:50.276Z,39.80
2019-01-29T03:26:16.492Z,39.80
2019-01-29T03:28:42.718Z,39.70
2019-01-29T03:31:08.998Z,39.80
2019-01-29T03:33:35.987Z,39.80
2019-01-29T03:36:02.243Z,39.60
2019-01-29T03:38:30.094Z,39.60
2019-01-29T03:40:56.316Z,39.60
2019-01-29T03:43:22.545Z,39.70
2019-01-29T03:45:48.828Z,39.80
2019-01-29T03:48:15.223Z,39.80
2019-01-29T03:50:43.075Z,39.70
2019-01-29T03:53:10.950Z,39.70
2019-01-29T03:55:37.167Z,39.60
2019-01-29T03:58:03.403Z,39.60
2019-01-29T04:00:29.619Z,39.60
2019-01-29T04:02:55.841Z,39.60
2019-01-29T04:05:22.079Z,39.60
2019-01-29T04:07:48.324Z,39.70
2019-01-29T04:10:15.911Z,39.70
2019-01-29T04:12:40.976Z,39.70
2019-01-29T04:15:07.806Z,39.60
2019-01-29T04:17:34.047Z,39.60
2019-01-29T04:20:00.302Z,39.60
2019-01-29T04:22:26.494Z,39.70
2019-01-29T04:24:52.739Z,39.60
2019-01-29T04:27:18.954Z,39.60
2019-01-29T04:29:45.192Z,39.80
2019-01-29T04:32:11.427Z,39.80
2019-01-29T04:34:37.638Z,39.90
2019-01-29T04:37:03.868Z,39.90
2019-01-29T04:39:30.088Z,39.90
2019-01-29T04:41:56.327Z,40.00
2019-01-29T04:44:22.556Z,40.00
2019-01-29T04:46:48.783Z,39.90
2019-01-29T04:49:15.008Z,40.00
2019-01-29T04:51:41.168Z,39.80
2019-01-29T04:54:08.289Z,40.00
2019-01-29T04:56:34.506Z,40.00
2019-01-29T04:59:00.770Z,39.90
2019-01-29T05:01:27.199Z,39.90
2019-01-29T05:03:53.363Z,39.90
2019-01-29T05:06:19.560Z,39.90
2019-01-29T05:08:46.519Z,40.00
2019-01-29T05:11:12.692Z,39.90
2019-01-29T05:13:38.855Z,39.90
2019-01-29T05:16:05.798Z,39.90
2019-01-29T05:18:32.327Z,39.90
2019-01-29T05:20:58.226Z,39.90
2019-01-29T05:23:24.424Z,39.90
2019-01-29T05:25:50.626Z,39.90
2019-01-29T05:28:16.812Z,39.80
2019-01-29T05:30:42.980Z,39.80
2019-01-29T05:33:09.179Z,39.80
2019-01-29T05:35:36.115Z,39.80
2019-01-29T05:38:04.167Z,39.80
2019-01-29T05:40:29.357Z,39.70
2019-01-29T05:42:55.572Z,39.60
2019-01-29T05:45:21.755Z,39.70
2019-01-29T05:47:47.928Z,39.80
2019-01-29T05:50:14.098Z,39.80
2019-01-29T05:52:40.281Z,39.70
2019-01-29T05:55:06.479Z,39.70
2019-01-29T05:57:32.660Z,39.80
2019-01-29T05:59:58.826Z,39.80
2019-01-29T06:02:25.776Z,39.70
2019-01-29T06:04:51.959Z,39.70
2019-01-29T06:07:18.144Z,39.70
2019-01-29T06:09:44.322Z,39.80
2019-01-29T06:12:10.499Z,39.90
2019-01-29T06:14:36.714Z,39.70
2019-01-29T06:17:02.921Z,39.70
2019-01-29T06:19:29.087Z,39.90
2019-01-29T06:21:55.272Z,40.00
2019-01-29T06:24:25.834Z,40.10
2019-01-29T06:26:47.683Z,40.20
2019-01-29T06:29:13.885Z,40.10
2019-01-29T06:31:40.077Z,40.10
2019-01-29T06:34:06.354Z,40.00
2019-01-29T06:36:32.552Z,39.90
2019-01-29T06:38:58.754Z,39.90
2019-01-29T06:41:24.937Z,39.90
2019-01-29T06:43:51.111Z,39.90
2019-01-29T06:46:17.295Z,39.80
2019-01-29T06:48:43.489Z,39.90
2019-01-29T06:51:09.748Z,40.00
2019-01-29T06:53:35.942Z,39.90
2019-01-29T06:56:02.159Z,39.90
2019-01-29T06:58:28.408Z,39.80
2019-01-29T07:00:54.642Z,39.90
2019-01-29T07:03:20.813Z,39.90
2019-01-29T07:05:47.043Z,39.80
2019-01-29T07:08:13.228Z,39.70
2019-01-29T07:10:39.488Z,39.70
2019-01-29T07:13:05.683Z,39.80
2019-01-29T07:15:31.868Z,39.70
2019-01-29T07:17:58.037Z,39.70
2019-01-29T07:20:24.202Z,39.70
2019-01-29T07:22:50.393Z,39.70
2019-01-29T07:25:16.717Z,39.70
2019-01-29T07:27:42.907Z,39.70
2019-01-29T07:30:09.119Z,39.70
2019-01-29T07:32:35.306Z,39.80
2019-01-29T07:35:01.509Z,39.70
2019-01-29T07:37:28.445Z,39.70
2019-01-29T07:39:54.639Z,39.60
2019-01-29T07:42:20.885Z,39.60
2019-01-29T07:44:48.568Z,39.60
2019-01-29T07:47:14.754Z,39.50
2019-01-29T07:49:40.952Z,39.60
2019-01-29T07:52:07.274Z,39.60
2019-01-29T07:54:33.636Z,39.60
2019-01-29T07:56:59.726Z,39.60
2019-01-29T07:59:33.188Z,39.60
2019-01-29T08:01:52.169Z,39.70
2019-01-29T08:04:18.872Z,39.60
2019-01-29T08:06:45.080Z,39.60
2019-01-29T08:09:11.486Z,39.60
2019-01-29T08:11:37.671Z,39.50
2019-01-29T08:14:03.860Z,39.50
2019-01-29T08:16:30.036Z,39.60
2019-01-29T08:18:56.224Z,39.60
2019-01-29T08:21:22.418Z,39.50
2019-01-29T08:23:48.621Z,39.40
2019-01-29T08:26:14.864Z,39.40
2019-01-29T08:28:41.078Z,39.50
2019-01-29T08:31:07.254Z,39.60
2019-01-29T08:33:33.418Z,39.60
2019-01-29T08:35:59.594Z,39.60
2019-01-29T08:38:26.451Z,39.60
2019-01-29T08:40:52.635Z,39.60
2019-01-29T08:43:18.832Z,39.60
2019-01-29T08:45:45.053Z,39.60
2019-01-29T08:48:11.227Z,39.50
2019-01-29T08:50:37.443Z,39.60
2019-01-29T08:53:04.386Z,39.70
2019-01-29T08:55:30.584Z,39.70
2019-01-29T08:57:56.758Z,39.70
2019-01-29T09:00:22.941Z,39.70
2019-01-29T09:02:49.120Z,39.80
2019-01-29T09:05:15.295Z,39.70
2019-01-29T09:07:41.483Z,39.60
2019-01-29T09:10:07.747Z,39.80
2019-01-29T09:12:33.920Z,39.80
2019-01-29T09:15:00.864Z,40.00
2019-01-29T09:17:27.051Z,39.90
2019-01-29T09:19:53.272Z,39.90
2019-01-29T09:22:19.460Z,39.90
2019-01-29T09:24:45.631Z,39.90
2019-01-29T09:27:11.808Z,39.90
2019-01-29T09:29:37.963Z,39.80
2019-01-29T09:32:04.142Z,39.80
2019-01-29T09:34:31.110Z,39.80
2019-01-29T09:36:57.282Z,39.60
2019-01-29T09:39:23.866Z,39.80
2019-01-29T09:41:50.056Z,39.70
2019-01-29T09:44:16.238Z,39.70
2019-01-29T09:46:42.418Z,39.80
2019-01-29T09:49:08.593Z,39.80
2019-01-29T09:51:34.764Z,39.80
2019-01-29T09:54:00.944Z,39.80
2019-01-29T09:56:27.132Z,39.80
2019-01-29T09:58:53.304Z,39.90
2019-01-29T10:01:19.483Z,39.80
2019-01-29T10:03:46.439Z,40.10
2019-01-29T10:06:12.613Z,39.80
2019-01-29T10:08:38.810Z,39.80
2019-01-29T10:11:04.986Z,39.80
2019-01-29T10:13:31.167Z,39.90
2019-01-29T10:15:57.330Z,39.80
2019-01-29T10:18:23.508Z,39.80
2019-01-29T10:20:50.464Z,39.70
2019-01-29T10:23:16.655Z,39.80
2019-01-29T10:25:42.842Z,39.90
2019-01-29T10:28:08.999Z,39.80
2019-01-29T10:30:35.188Z,39.80
2019-01-29T10:33:01.439Z,39.80
2019-01-29T10:35:27.603Z,39.80
2019-01-29T10:37:53.776Z,39.90
2019-01-29T10:40:19.941Z,39.80
2019-01-29T10:42:46.883Z,40.20
2019-01-29T10:45:13.077Z,39.90
2019-01-29T10:47:39.315Z,39.90
2019-01-29T10:50:05.475Z,39.90
2019-01-29T10:52:32.432Z,40.60
2019-01-29T10:54:58.599Z,39.90
2019-01-29T10:57:24.811Z,40.00
2019-01-29T10:59:51.086Z,40.00
2019-01-29T11:02:17.360Z,40.00
2019-01-29T11:04:43.553Z,40.00
2019-01-29T11:07:09.747Z,40.00
2019-01-29T11:09:35.934Z,40.00
2019-01-29T11:12:02.879Z,40.10
2019-01-29T11:14:29.080Z,40.00
2019-01-29T11:16:56.778Z,40.10
2019-01-29T11:19:22.963Z,40.00
2019-01-29T11:21:49.175Z,40.10
2019-01-29T11:24:15.407Z,40.10
2019-01-29T11:26:41.608Z,40.00
2019-01-29T11:29:07.806Z,40.00
2019-01-29T11:31:33.978Z,40.00
2019-01-29T11:34:00.155Z,40.10
2019-01-29T11:36:26.319Z,40.10
2019-01-29T11:38:52.532Z,40.00
2019-01-29T11:41:19.819Z,40.00
2019-01-29T11:43:45.035Z,39.90
2019-01-29T11:46:11.227Z,39.90
2019-01-29T11:48:37.407Z,40.00
2019-01-29T11:51:03.610Z,40.10
2019-01-29T11:53:30.579Z,40.00
2019-01-29T11:56:04.290Z,40.10
2019-01-29T11:58:22.963Z,40.00
2019-01-29T12:00:49.169Z,40.10
2019-01-29T12:03:16.125Z,40.00
2019-01-29T12:05:42.307Z,39.90
2019-01-29T12:08:08.500Z,40.00
2019-01-29T12:10:34.745Z,40.00
2019-01-29T12:13:02.378Z,39.90
2019-01-29T12:15:27.228Z,40.00
2019-01-29T12:17:53.408Z,40.00
2019-01-29T12:20:19.603Z,39.80
2019-01-29T12:22:46.552Z,39.90
2019-01-29T12:25:12.739Z,39.80
2019-01-29T12:27:39.030Z,39.90
2019-01-29T12:30:05.246Z,39.60
2019-01-29T12:32:31.437Z,39.70
2019-01-29T12:34:57.642Z,39.50
2019-01-29T12:37:23.849Z,39.60
2019-01-29T12:39:50.367Z,39.60
2019-01-29T12:42:16.551Z,39.60
2019-01-29T12:44:42.747Z,39.50
2019-01-29T12:47:08.917Z,39.50
2019-01-29T12:49:35.875Z,39.50
2019-01-29T12:52:02.047Z,39.50
2019-01-29T12:54:28.435Z,39.50
2019-01-29T12:56:55.393Z,39.10
2019-01-29T12:59:21.592Z,39.10
2019-01-29T13:01:49.312Z,39.00
2019-01-29T13:04:15.489Z,39.00
2019-01-29T13:06:41.666Z,38.90
2019-01-29T13:09:07.875Z,39.00
2019-01-29T13:11:34.068Z,38.20
2019-01-29T13:14:00.272Z,39.00
2019-01-29T13:16:26.468Z,39.10
2019-01-29T13:18:52.668Z,38.80
2019-01-29T13:21:18.903Z,38.80
2019-01-29T13:23:46.275Z,38.50
2019-01-29T13:26:12.468Z,38.50
2019-01-29T13:28:39.413Z,38.30
2019-01-29T13:31:05.616Z,38.10
2019-01-29T13:33:33.296Z,38.40
2019-01-29T13:35:59.491Z,38.30
2019-01-29T13:38:26.255Z,38.10
2019-01-29T13:40:52.422Z,38.40
2019-01-29T13:43:18.595Z,38.40
2019-01-29T13:45:44.775Z,38.20
2019-01-29T13:48:10.964Z,37.90
2019-01-29T13:50:37.131Z,37.70
2019-01-29T13:53:03.341Z,37.90
2019-01-29T13:55:29.519Z,37.90
2019-01-29T13:57:55.755Z,38.00
2019-01-29T14:00:21.923Z,37.90
2019-01-29T14:02:48.906Z,38.00
2019-01-29T14:05:15.093Z,37.90
2019-01-29T14:07:41.306Z,38.00
2019-01-29T14:10:07.497Z,37.70
2019-01-29T14:12:33.709Z,37.90
2019-01-29T14:14:59.883Z,37.70
2019-01-29T14:17:26.073Z,37.90
2019-01-29T14:19:52.266Z,37.70
2019-01-29T14:22:18.463Z,37.80
2019-01-29T14:24:44.657Z,37.80
2019-01-29T14:27:10.892Z,37.30
2019-01-29T14:29:37.070Z,37.70
2019-01-29T14:32:04.033Z,38.40
2019-01-29T14:34:30.220Z,37.70
2019-01-29T14:36:56.398Z,37.70
2019-01-29T14:39:22.576Z,37.70
2019-01-29T14:41:48.763Z,37.60
2019-01-29T14:44:14.923Z,37.60
2019-01-29T14:46:41.119Z,37.50
2019-01-29T14:49:07.372Z,37.50
2019-01-29T14:51:33.536Z,37.60
2019-01-29T14:53:59.723Z,37.60
2019-01-29T14:56:25.916Z,37.50
2019-01-29T14:58:52.110Z,37.50
2019-01-29T15:01:18.294Z,37.40
2019-01-29T15:03:46.003Z,37.60
2019-01-29T15:06:12.185Z,37.60
2019-01-29T15:08:38.399Z,37.50
2019-01-29T15:11:04.597Z,37.50
2019-01-29T15:13:30.800Z,37.50
2019-01-29T15:15:57.743Z,37.40
2019-01-29T15:18:23.928Z,37.30
2019-01-29T15:20:50.087Z,36.60
2019-01-29T15:23:17.058Z,37.00
2019-01-29T15:25:43.280Z,36.90
2019-01-29T15:28:09.450Z,37.10
2019-01-29T15:30:35.692Z,37.20
2019-01-29T15:33:01.920Z,37.30
2019-01-29T15:35:28.096Z,37.10
2019-01-29T15:37:55.054Z,37.30
2019-01-29T15:40:21.255Z,37.20
2019-01-29T15:42:47.430Z,37.20
2019-01-29T15:45:13.619Z,37.10
2019-01-29T15:47:39.918Z,37.00
2019-01-29T15:50:06.112Z,36.90
2019-01-29T15:52:32.288Z,36.90
2019-01-29T15:54:59.231Z,37.00
2019-01-29T15:57:25.440Z,36.90
2019-01-29T15:59:51.623Z,36.90
2019-01-29T16:02:17.808Z,37.00
2019-01-29T16:04:43.996Z,36.80
2019-01-29T16:07:10.207Z,36.80
2019-01-29T16:09:36.397Z,36.80
2019-01-29T16:12:02.596Z,36.70
2019-01-29T16:14:29.499Z,36.70
2019-01-29T16:16:55.663Z,36.70
2019-01-29T16:19:21.879Z,36.60
2019-01-29T16:21:48.065Z,36.60
2019-01-29T16:24:15.007Z,36.60
2019-01-29T16:26:41.174Z,36.60
2019-01-29T16:29:07.343Z,36.10
2019-01-29T16:31:34.318Z,36.70
2019-01-29T16:34:00.486Z,36.60
2019-01-29T16:36:26.684Z,36.60
2019-01-29T16:38:52.884Z,36.10
2019-01-29T16:41:20.181Z,36.70
2019-01-29T16:43:46.354Z,36.60
2019-01-29T16:46:13.286Z,36.60
2019-01-29T16:48:39.490Z,36.50
2019-01-29T16:51:05.675Z,36.50
2019-01-29T16:53:31.844Z,36.40
2019-01-29T16:55:58.021Z,36.40
2019-01-29T16:58:24.187Z,36.40
2019-01-29T17:00:50.371Z,36.40
2019-01-29T17:03:17.332Z,36.40
2019-01-29T17:05:43.545Z,36.40
2019-01-29T17:08:09.997Z,36.30
2019-01-29T17:10:35.993Z,36.20
2019-01-29T17:13:02.189Z,36.20
2019-01-29T17:15:30.099Z,36.20
2019-01-29T17:17:56.305Z,36.20
2019-01-29T17:20:22.476Z,36.20
2019-01-29T17:22:48.685Z,36.20
2019-01-29T17:25:14.861Z,36.20
2019-01-29T17:27:41.239Z,36.30
2019-01-29T17:30:07.407Z,36.10
2019-01-29T17:32:33.599Z,36.20
2019-01-29T17:34:59.788Z,36.20
2019-01-29T17:37:25.984Z,36.10
2019-01-29T17:39:52.180Z,36.10
2019-01-29T17:42:18.375Z,36.10
2019-01-29T17:44:44.638Z,36.10
2019-01-29T17:47:10.828Z,36.00
2019-01-29T17:49:37.009Z,36.00
2019-01-29T17:52:03.259Z,36.00
2019-01-29T17:54:29.424Z,36.00
2019-01-29T17:56:56.366Z,36.00
2019-01-29T17:59:22.545Z,35.90
2019-01-29T18:01:49.504Z,35.90
2019-01-29T18:04:16.293Z,35.80
2019-01-29T18:06:42.483Z,35.80
2019-01-29T18:09:08.674Z,35.80
2019-01-29T18:11:34.881Z,35.80
2019-01-29T18:14:01.067Z,35.70
2019-01-29T18:16:27.253Z,35.70
2019-01-29T18:18:53.425Z,35.70
2019-01-29T18:21:19.613Z,35.70
2019-01-29T18:23:45.920Z,35.70
2019-01-29T18:26:12.493Z,35.60
2019-01-29T18:28:38.679Z,35.70
2019-01-29T18:31:04.852Z,35.60
2019-01-29T18:33:31.070Z,35.60
2019-01-29T18:35:57.274Z,35.60
2019-01-29T18:38:23.488Z,35.60
2019-01-29T18:40:49.656Z,35.60
2019-01-29T18:43:15.822Z,35.50
2019-01-29T18:45:42.026Z,35.60
2019-01-29T18:48:08.216Z,35.60
2019-01-29T18:50:34.418Z,35.50
2019-01-29T18:53:00.624Z,35.40
2019-01-29T18:55:27.573Z,35.40
2019-01-29T18:57:53.739Z,35.40
2019-01-29T19:00:19.935Z,36.10
2019-01-29T19:02:46.127Z,35.40
2019-01-29T19:05:12.319Z,35.40
2019-01-29T19:07:38.603Z,35.30
2019-01-29T19:10:06.296Z,35.40
2019-01-29T19:12:32.488Z,35.40
2019-01-29T19:14:58.695Z,35.30
2019-01-29T19:17:24.983Z,35.30
2019-01-29T19:19:51.177Z,35.30
2019-01-29T19:22:17.348Z,35.40
2019-01-29T19:24:43.516Z,35.30
2019-01-29T19:27:09.791Z,35.30
2019-01-29T19:29:35.959Z,35.30
2019-01-29T19:32:02.154Z,35.30
2019-01-29T19:34:28.346Z,35.30
2019-01-29T19:36:55.294Z,35.30
2019-01-29T19:39:22.246Z,35.30
2019-01-29T19:41:48.424Z,35.30
2019-01-29T19:44:14.604Z,35.30
2019-01-29T19:46:41.545Z,35.20
2019-01-29T19:49:07.722Z,35.10
2019-01-29T19:51:33.900Z,35.20
2019-01-29T19:54:00.862Z,35.20
2019-01-29T19:56:27.070Z,35.20
2019-01-29T19:58:53.251Z,35.10
2019-01-29T20:01:19.500Z,35.20
2019-01-29T20:03:45.690Z,35.10
2019-01-29T20:06:11.912Z,35.10
2019-01-29T20:08:38.100Z,35.10
2019-01-29T20:11:04.277Z,35.10
2019-01-29T20:13:30.456Z,35.50
2019-01-29T20:15:56.667Z,35.10
2019-01-29T20:18:23.248Z,35.10
2019-01-29T20:20:49.571Z,35.10
2019-01-29T20:23:15.761Z,35.10
2019-01-29T20:25:41.947Z,35.00
2019-01-29T20:28:08.135Z,34.90
2019-01-29T20:30:35.143Z,35.00
2019-01-29T20:33:01.331Z,35.00
2019-01-29T20:35:27.503Z,34.90
2019-01-29T20:37:53.698Z,34.90
2019-01-29T20:40:19.955Z,35.00
2019-01-29T20:42:46.147Z,35.00
2019-01-29T20:45:12.340Z,34.90
2019-01-29T20:47:38.538Z,34.90
2019-01-29T20:50:04.727Z,34.90
2019-01-29T20:52:30.909Z,34.90
2019-01-29T20:54:57.116Z,34.90
2019-01-29T20:57:23.297Z,34.90
2019-01-29T20:59:50.238Z,34.80
2019-01-29T21:02:16.444Z,34.80
2019-01-29T21:04:43.392Z,34.80
2019-01-29T21:07:10.346Z,34.90
2019-01-29T21:09:36.598Z,35.40
2019-01-29T21:12:02.797Z,34.90
2019-01-29T21:14:29.758Z,34.80
2019-01-29T21:16:57.492Z,34.90
2019-01-29T21:19:23.693Z,34.80
2019-01-29T21:21:49.982Z,34.80
2019-01-29T21:24:16.187Z,34.80
2019-01-29T21:26:42.382Z,34.80
2019-01-29T21:29:08.557Z,34.90
2019-01-29T21:31:35.511Z,34.80
2019-01-29T21:34:01.702Z,34.70
2019-01-29T21:36:30.308Z,34.80
2019-01-29T21:38:54.133Z,34.80
2019-01-29T21:41:20.302Z,34.80
2019-01-29T21:43:47.273Z,34.80
2019-01-29T21:46:13.449Z,34.80
2019-01-29T21:48:39.625Z,34.70
2019-01-29T21:51:05.840Z,34.70
2019-01-29T21:53:32.026Z,34.70
2019-01-29T21:55:58.226Z,34.70
2019-01-29T21:58:24.408Z,34.70
2019-01-29T22:00:50.588Z,34.70
2019-01-29T22:03:16.827Z,34.70
2019-01-29T22:05:42.998Z,34.70
2019-01-29T22:08:10.172Z,34.70
2019-01-29T22:10:36.410Z,34.70
2019-01-29T22:13:02.783Z,34.70
2019-01-29T22:15:29.200Z,34.70
2019-01-29T22:17:55.422Z,34.70
2019-01-29T22:20:21.647Z,34.60
2019-01-29T22:22:47.885Z,34.60
2019-01-29T22:25:15.739Z,34.60
2019-01-29T22:27:41.963Z,34.60
2019-01-29T22:30:08.257Z,34.60
2019-01-29T22:32:34.652Z,34.50
2019-01-29T22:35:02.339Z,34.60
2019-01-29T22:37:28.735Z,34.60
2019-01-29T22:39:54.964Z,34.60
2019-01-29T22:42:21.180Z,34.50
2019-01-29T22:44:47.420Z,34.60
2019-01-29T22:47:15.298Z,34.50
2019-01-29T22:49:41.499Z,34.50
2019-01-29T22:52:07.779Z,34.50
2019-01-29T22:54:33.961Z,34.50
2019-01-29T22:57:00.205Z,34.50
2019-01-29T22:59:33.137Z,34.40
2019-01-29T23:01:52.846Z,34.40
2019-01-29T23:04:19.095Z,34.40
2019-01-29T23:06:47.006Z,34.40
2019-01-29T23:09:13.390Z,34.40
2019-01-29T23:11:39.602Z,34.40
2019-01-29T23:14:05.865Z,34.40
2019-01-29T23:16:32.092Z,34.30
2019-01-29T23:18:59.937Z,34.20
2019-01-29T23:21:26.170Z,34.20
2019-01-29T23:23:52.390Z,34.20
2019-01-29T23:26:18.611Z,34.30
2019-01-29T23:28:44.846Z,34.40
2019-01-29T23:31:11.071Z,34.20
2019-01-29T23:33:37.302Z,34.40
2019-01-29T23:36:03.531Z,34.30
2019-01-29T23:38:29.749Z,34.30
2019-01-29T23:40:55.988Z,34.20
2019-01-29T23:43:22.200Z,34.20
2019-01-29T23:45:48.429Z,34.20
2019-01-29T23:48:14.679Z,34.30
2019-01-29T23:50:40.907Z,34.20
2019-01-29T23:53:07.142Z,34.20
2019-01-29T23:55:33.355Z,34.10
2019-01-29T23:57:59.945Z,34.20
